createdAt,value
2019-05-29T00:00:07.613Z,0
2019-05-29T00:01:09.906Z,0
2019-05-29T00:02:07.981Z,0
2019-05-29T00:03:08.230Z,0
2019-05-29T00:04:08.164Z,0
2019-05-29T00:05:07.958Z,0
2019-05-29T00:06:08.226Z,0
2019-05-29T00:07:08.005Z,0
2019-05-29T00:08:08.204Z,0
2019-05-29T00:09:08.054Z,0
2019-05-29T00:10:08.761Z,0
2019-05-29T00:11:08.002Z,0
2019-05-29T00:12:11.066Z,0
2019-05-29T00:13:08.879Z,0
2019-05-29T00:14:19.630Z,0
2019-05-29T00:15:10.294Z,0
2019-05-29T00:16:08.312Z,0
2019-05-29T00:17:08.388Z,0
2019-05-29T00:18:08.337Z,0
2019-05-29T00:19:08.747Z,0
2019-05-29T00:20:08.382Z,0
2019-05-29T00:21:08.671Z,0
2019-05-29T00:22:08.617Z,0
2019-05-29T00:23:08.754Z,0
2019-05-29T00:24:08.715Z,0
2019-05-29T00:25:08.834Z,0
2019-05-29T00:26:08.996Z,0
2019-05-29T00:27:12.494Z,0
2019-05-29T00:28:09.234Z,0
2019-05-29T00:29:09.609Z,0
2019-05-29T00:30:09.349Z,0
2019-05-29T00:31:09.856Z,0
2019-05-29T00:32:11.068Z,0
2019-05-29T00:33:11.816Z,0
2019-05-29T00:34:11.019Z,0
2019-05-29T00:35:10.250Z,0
2019-05-29T00:36:10.334Z,0
2019-05-29T00:37:10.458Z,0
2019-05-29T00:38:10.545Z,0
2019-05-29T00:39:10.619Z,0
2019-05-29T00:40:10.891Z,0
2019-05-29T00:41:10.817Z,0
2019-05-29T00:42:11.076Z,0
2019-05-29T00:43:11.167Z,0
2019-05-29T00:44:11.131Z,0
2019-05-29T00:45:11.889Z,0
2019-05-29T00:46:11.364Z,0
2019-05-29T00:47:11.540Z,0
2019-05-29T00:48:11.637Z,0
2019-05-29T00:49:11.761Z,0
2019-05-29T00:50:12.263Z,0
2019-05-29T00:51:11.253Z,0
2019-05-29T00:52:12.200Z,0
2019-05-29T00:53:12.144Z,0
2019-05-29T00:54:12.468Z,0
2019-05-29T00:55:12.546Z,0
2019-05-29T00:56:12.599Z,0
2019-05-29T00:57:12.916Z,0
2019-05-29T00:58:12.861Z,0
2019-05-29T00:59:13.003Z,0
2019-05-29T01:00:13.134Z,0
2019-05-29T01:01:13.287Z,0
2019-05-29T01:02:13.580Z,0
2019-05-29T01:03:13.701Z,0
2019-05-29T01:04:13.555Z,0
2019-05-29T01:05:13.910Z,0
2019-05-29T01:06:13.883Z,0
2019-05-29T01:07:14.135Z,0
2019-05-29T01:08:12.888Z,0
2019-05-29T01:09:13.019Z,0
2019-05-29T01:10:13.221Z,0
2019-05-29T01:11:14.688Z,0
2019-05-29T01:12:13.330Z,0
2019-05-29T01:13:13.327Z,0
2019-05-29T01:14:13.365Z,0
2019-05-29T01:15:13.393Z,0
2019-05-29T01:16:13.426Z,0
2019-05-29T01:17:13.740Z,0
2019-05-29T01:18:13.817Z,0
2019-05-29T01:19:13.917Z,0
2019-05-29T01:20:14.058Z,0
2019-05-29T01:21:14.090Z,0
2019-05-29T01:22:14.201Z,0
2019-05-29T01:23:14.328Z,0
2019-05-29T01:24:14.502Z,0
2019-05-29T01:25:16.517Z,0
2019-05-29T01:26:14.708Z,0
2019-05-29T01:27:15.124Z,0
2019-05-29T01:28:14.874Z,0
2019-05-29T01:29:15.012Z,0
2019-05-29T01:30:15.107Z,0
2019-05-29T01:31:15.203Z,0
2019-05-29T01:32:15.459Z,0
2019-05-29T01:33:17.408Z,0
2019-05-29T01:34:16.348Z,0
2019-05-29T01:35:16.453Z,0
2019-05-29T01:36:16.553Z,0
2019-05-29T01:37:16.077Z,0
2019-05-29T01:38:15.696Z,0
2019-05-29T01:39:15.706Z,0
2019-05-29T01:40:21.841Z,0
2019-05-29T01:41:15.913Z,0
2019-05-29T01:42:17.288Z,0
2019-05-29T01:43:17.406Z,0
2019-05-29T01:44:17.437Z,0
2019-05-29T01:45:17.452Z,0
2019-05-29T01:46:17.266Z,0
2019-05-29T01:47:17.566Z,0
2019-05-29T01:48:17.374Z,0
2019-05-29T01:49:17.856Z,0
2019-05-29T01:50:17.662Z,0
2019-05-29T01:51:17.440Z,0
2019-05-29T01:52:17.548Z,0
2019-05-29T01:53:17.642Z,0
2019-05-29T01:54:17.504Z,0
2019-05-29T01:55:17.688Z,0
2019-05-29T01:56:17.632Z,0
2019-05-29T01:57:17.793Z,0
2019-05-29T01:58:17.986Z,0
2019-05-29T01:59:17.786Z,0
2019-05-29T02:00:17.878Z,0
2019-05-29T02:01:18.043Z,0
2019-05-29T02:02:17.856Z,0
2019-05-29T02:03:17.933Z,0
2019-05-29T02:04:18.049Z,0
2019-05-29T02:05:18.205Z,0
2019-05-29T02:06:18.210Z,0
2019-05-29T02:07:18.198Z,0
2019-05-29T02:08:18.313Z,0
2019-05-29T02:09:18.423Z,0
2019-05-29T02:10:18.579Z,0
2019-05-29T02:11:19.177Z,0
2019-05-29T02:12:19.634Z,0
2019-05-29T02:13:19.395Z,0
2019-05-29T02:14:18.919Z,0
2019-05-29T02:15:25.785Z,0
2019-05-29T02:16:20.638Z,0
2019-05-29T02:17:19.676Z,0
2019-05-29T02:18:19.363Z,0
2019-05-29T02:19:19.931Z,0
2019-05-29T02:20:19.592Z,0
2019-05-29T02:21:20.020Z,0
2019-05-29T02:22:20.923Z,0
2019-05-29T02:23:20.005Z,0
2019-05-29T02:24:21.074Z,0
2019-05-29T02:25:22.184Z,0
2019-05-29T02:26:20.417Z,0
2019-05-29T02:27:21.116Z,0
2019-05-29T02:28:22.580Z,0
2019-05-29T02:29:20.831Z,0
2019-05-29T02:30:22.794Z,0
2019-05-29T02:31:22.309Z,0
2019-05-29T02:32:21.352Z,0
2019-05-29T02:33:22.062Z,0
2019-05-29T02:34:22.499Z,0
2019-05-29T02:35:22.987Z,0
2019-05-29T02:36:22.376Z,0
2019-05-29T02:37:22.247Z,0
2019-05-29T02:38:23.295Z,0
2019-05-29T02:39:22.898Z,0
2019-05-29T02:40:24.055Z,0
2019-05-29T02:41:23.990Z,0
2019-05-29T02:42:22.751Z,0
2019-05-29T02:43:23.377Z,0
2019-05-29T02:44:23.434Z,0
2019-05-29T02:45:23.799Z,0
2019-05-29T02:46:23.857Z,0
2019-05-29T02:47:23.521Z,0
2019-05-29T02:48:24.942Z,0
2019-05-29T02:49:23.831Z,0
2019-05-29T02:50:23.906Z,0
2019-05-29T02:51:24.187Z,0
2019-05-29T02:52:24.157Z,0
2019-05-29T02:53:24.430Z,0
2019-05-29T02:54:24.370Z,0
2019-05-29T02:55:24.445Z,0
2019-05-29T02:56:24.363Z,0
2019-05-29T02:57:24.602Z,0
2019-05-29T02:58:23.942Z,0
2019-05-29T02:59:25.549Z,0
2019-05-29T03:00:23.474Z,0
2019-05-29T03:01:23.940Z,0
2019-05-29T03:02:23.471Z,0
2019-05-29T03:03:26.466Z,0
2019-05-29T03:04:26.160Z,0
2019-05-29T03:05:25.914Z,0
2019-05-29T03:06:26.182Z,0
2019-05-29T03:07:26.121Z,0
2019-05-29T03:08:26.890Z,0
2019-05-29T03:09:26.506Z,0
2019-05-29T03:10:24.736Z,0
2019-05-29T03:11:25.112Z,0
2019-05-29T03:12:24.995Z,0
2019-05-29T03:13:25.539Z,0
2019-05-29T03:14:25.197Z,0
2019-05-29T03:15:25.577Z,0
2019-05-29T03:16:26.080Z,0
2019-05-29T03:17:25.695Z,0
2019-05-29T03:18:25.772Z,0
2019-05-29T03:19:25.912Z,0
2019-05-29T03:20:25.688Z,0
2019-05-29T03:21:25.927Z,0
2019-05-29T03:22:25.738Z,0
2019-05-29T03:23:26.570Z,0
2019-05-29T03:24:26.616Z,0
2019-05-29T03:25:26.487Z,0
2019-05-29T03:26:26.959Z,5.625
2019-05-29T03:27:25.762Z,5.625
2019-05-29T03:28:25.636Z,5.625
2019-05-29T03:29:26.551Z,5.625
2019-05-29T03:30:27.746Z,5.625
2019-05-29T03:31:28.033Z,5.625
2019-05-29T03:32:27.887Z,5.625
2019-05-29T03:33:28.064Z,5.625
2019-05-29T03:34:28.368Z,5.625
2019-05-29T03:35:28.083Z,5.625
2019-05-29T03:36:28.264Z,5.625
2019-05-29T03:37:26.348Z,5.625
2019-05-29T03:38:26.266Z,5.625
2019-05-29T03:39:26.493Z,5.625
2019-05-29T03:40:26.473Z,11.25
2019-05-29T03:41:26.402Z,11.25
2019-05-29T03:42:26.372Z,11.25
2019-05-29T03:43:26.533Z,11.25
2019-05-29T03:44:28.192Z,11.25
2019-05-29T03:45:27.210Z,11.25
2019-05-29T03:46:33.878Z,11.25
2019-05-29T03:47:26.960Z,11.25
2019-05-29T03:48:25.997Z,11.25
2019-05-29T03:49:26.927Z,11.25
2019-05-29T03:50:26.462Z,11.25
2019-05-29T03:51:27.671Z,11.25
2019-05-29T03:52:26.375Z,16.875
2019-05-29T03:53:27.191Z,16.875
2019-05-29T03:54:28.754Z,16.875
2019-05-29T03:55:27.354Z,16.875
2019-05-29T03:56:26.446Z,16.875
2019-05-29T03:57:27.635Z,16.875
2019-05-29T03:58:28.864Z,16.875
2019-05-29T03:59:28.550Z,16.875
2019-05-29T04:00:31.533Z,16.875
2019-05-29T04:01:29.071Z,16.875
2019-05-29T04:02:28.657Z,22.5
2019-05-29T04:03:28.925Z,22.5
2019-05-29T04:04:29.007Z,22.5
2019-05-29T04:05:29.082Z,22.5
2019-05-29T04:06:29.044Z,22.5
2019-05-29T04:07:29.230Z,22.5
2019-05-29T04:08:29.273Z,22.5
2019-05-29T04:09:27.219Z,22.5
2019-05-29T04:10:27.194Z,22.5
2019-05-29T04:11:29.212Z,22.5
2019-05-29T04:12:29.479Z,22.5
2019-05-29T04:13:29.583Z,22.5
2019-05-29T04:14:29.652Z,22.5
2019-05-29T04:15:29.282Z,28.125
2019-05-29T04:16:29.493Z,28.125
2019-05-29T04:17:29.687Z,28.125
2019-05-29T04:18:29.672Z,28.125
2019-05-29T04:19:30.018Z,28.125
2019-05-29T04:20:29.531Z,28.125
2019-05-29T04:21:29.594Z,28.125
2019-05-29T04:22:30.271Z,28.125
2019-05-29T04:23:29.893Z,28.125
2019-05-29T04:24:29.791Z,28.125
2019-05-29T04:25:31.662Z,28.125
2019-05-29T04:26:29.678Z,28.125
2019-05-29T04:27:30.040Z,28.125
2019-05-29T04:28:30.315Z,28.125
2019-05-29T04:29:29.947Z,28.125
2019-05-29T04:30:29.960Z,28.125
2019-05-29T04:31:28.190Z,33.75
2019-05-29T04:32:28.138Z,33.75
2019-05-29T04:33:28.187Z,33.75
2019-05-29T04:34:29.556Z,33.75
2019-05-29T04:35:30.207Z,33.75
2019-05-29T04:36:30.499Z,33.75
2019-05-29T04:37:30.241Z,33.75
2019-05-29T04:38:30.960Z,33.75
2019-05-29T04:39:30.587Z,33.75
2019-05-29T04:40:30.536Z,33.75
2019-05-29T04:41:30.805Z,33.75
2019-05-29T04:42:31.846Z,33.75
2019-05-29T04:43:31.074Z,33.75
2019-05-29T04:44:30.758Z,33.75
2019-05-29T04:45:30.828Z,33.75
2019-05-29T04:46:30.395Z,33.75
2019-05-29T04:47:30.898Z,33.75
2019-05-29T04:48:31.437Z,33.75
2019-05-29T04:49:31.862Z,33.75
2019-05-29T04:50:31.342Z,39.375
2019-05-29T04:51:31.162Z,39.375
2019-05-29T04:52:31.221Z,39.375
2019-05-29T04:53:31.371Z,39.375
2019-05-29T04:54:31.061Z,39.375
2019-05-29T04:55:30.682Z,39.375
2019-05-29T04:56:30.872Z,39.375
2019-05-29T04:57:30.819Z,39.375
2019-05-29T04:58:31.070Z,39.375
2019-05-29T04:59:30.828Z,39.375
2019-05-29T05:00:30.906Z,39.375
2019-05-29T05:01:30.871Z,39.375
2019-05-29T05:02:31.057Z,39.375
2019-05-29T05:03:31.005Z,39.375
2019-05-29T05:04:30.987Z,39.375
2019-05-29T05:05:31.144Z,39.375
2019-05-29T05:06:31.161Z,39.375
2019-05-29T05:07:31.136Z,39.375
2019-05-29T05:08:31.191Z,39.375
2019-05-29T05:09:31.227Z,39.375
2019-05-29T05:10:31.310Z,39.375
2019-05-29T05:11:31.279Z,45
2019-05-29T05:12:31.511Z,45
2019-05-29T05:13:31.443Z,45
2019-05-29T05:14:31.471Z,45
2019-05-29T05:15:31.590Z,45
2019-05-29T05:16:31.707Z,45
2019-05-29T05:17:31.804Z,45
2019-05-29T05:18:31.787Z,45
2019-05-29T05:19:31.826Z,45
2019-05-29T05:20:31.974Z,45
2019-05-29T05:21:31.988Z,45
2019-05-29T05:22:32.060Z,45
2019-05-29T05:23:32.018Z,45
2019-05-29T05:24:32.171Z,45
2019-05-29T05:25:32.185Z,45
2019-05-29T05:26:32.138Z,45
2019-05-29T05:27:32.182Z,45
2019-05-29T05:28:32.251Z,45
2019-05-29T05:29:32.325Z,45
2019-05-29T05:30:32.494Z,45
2019-05-29T05:31:32.628Z,50.625
2019-05-29T05:32:32.727Z,50.625
2019-05-29T05:33:32.847Z,50.625
2019-05-29T05:34:32.949Z,50.625
2019-05-29T05:35:33.038Z,50.625
2019-05-29T05:36:33.167Z,50.625
2019-05-29T05:37:33.272Z,50.625
2019-05-29T05:38:33.362Z,50.625
2019-05-29T05:39:35.140Z,50.625
2019-05-29T05:40:36.868Z,50.625
2019-05-29T05:41:34.782Z,50.625
2019-05-29T05:42:34.786Z,50.625
2019-05-29T05:43:34.920Z,50.625
2019-05-29T05:44:34.873Z,50.625
2019-05-29T05:45:35.148Z,50.625
2019-05-29T05:46:34.938Z,50.625
2019-05-29T05:47:49.404Z,50.625
2019-05-29T05:48:35.101Z,50.625
2019-05-29T05:49:35.424Z,50.625
2019-05-29T05:50:35.088Z,50.625
2019-05-29T05:51:38.224Z,50.625
2019-05-29T05:52:35.236Z,50.625
2019-05-29T05:53:35.375Z,50.625
2019-05-29T05:54:35.338Z,50.625
2019-05-29T05:55:35.480Z,50.625
2019-05-29T05:56:35.557Z,56.25
2019-05-29T05:57:35.553Z,56.25
2019-05-29T05:58:35.674Z,56.25
2019-05-29T05:59:35.740Z,56.25
2019-05-29T06:00:35.784Z,56.25
2019-05-29T06:01:35.857Z,56.25
2019-05-29T06:02:35.889Z,56.25
2019-05-29T06:03:35.905Z,56.25
2019-05-29T06:04:35.851Z,56.25
2019-05-29T06:05:36.058Z,56.25
2019-05-29T06:06:36.127Z,61.875
2019-05-29T06:07:36.056Z,101.25
2019-05-29T06:08:36.109Z,213.75
2019-05-29T06:09:36.119Z,506.25
2019-05-29T06:10:36.092Z,714.375
2019-05-29T06:11:36.137Z,742.5
2019-05-29T06:12:36.509Z,720
2019-05-29T06:13:36.683Z,708.75
2019-05-29T06:14:36.445Z,579.375
2019-05-29T06:15:36.470Z,208.125
2019-05-29T06:16:36.818Z,56.25
2019-05-29T06:17:36.556Z,56.25
2019-05-29T06:18:36.992Z,56.25
2019-05-29T06:19:36.693Z,56.25
2019-05-29T06:20:36.735Z,56.25
2019-05-29T06:21:36.689Z,56.25
2019-05-29T06:22:36.864Z,56.25
2019-05-29T06:23:37.484Z,56.25
2019-05-29T06:24:37.160Z,56.25
2019-05-29T06:25:38.620Z,56.25
2019-05-29T06:26:38.871Z,56.25
2019-05-29T06:27:37.085Z,56.25
2019-05-29T06:28:37.051Z,56.25
2019-05-29T06:29:37.124Z,56.25
2019-05-29T06:30:39.240Z,56.25
2019-05-29T06:31:37.950Z,56.25
2019-05-29T06:32:37.359Z,56.25
2019-05-29T06:33:37.389Z,56.25
2019-05-29T06:34:37.498Z,56.25
2019-05-29T06:35:37.541Z,56.25
2019-05-29T06:36:37.927Z,56.25
2019-05-29T06:37:37.590Z,56.25
2019-05-29T06:38:37.605Z,56.25
2019-05-29T06:39:37.681Z,56.25
2019-05-29T06:40:38.233Z,56.25
2019-05-29T06:41:37.754Z,56.25
2019-05-29T06:42:37.790Z,56.25
2019-05-29T06:43:37.844Z,56.25
2019-05-29T06:44:39.306Z,61.875
2019-05-29T06:45:39.840Z,61.875
2019-05-29T06:46:38.371Z,78.75
2019-05-29T06:47:39.198Z,129.375
2019-05-29T06:48:44.490Z,129.375
2019-05-29T06:49:40.028Z,112.5
2019-05-29T06:50:39.369Z,61.875
2019-05-29T06:51:39.043Z,61.875
2019-05-29T06:52:39.390Z,61.875
2019-05-29T06:53:39.691Z,67.5
2019-05-29T06:54:38.252Z,67.5
2019-05-29T06:55:39.736Z,61.875
2019-05-29T06:56:39.653Z,61.875
2019-05-29T06:57:40.101Z,61.875
2019-05-29T06:58:39.921Z,61.875
2019-05-29T06:59:40.301Z,67.5
2019-05-29T07:00:39.371Z,67.5
2019-05-29T07:01:39.376Z,67.5
2019-05-29T07:02:38.974Z,67.5
2019-05-29T07:03:39.671Z,67.5
2019-05-29T07:04:39.028Z,67.5
2019-05-29T07:05:40.053Z,67.5
2019-05-29T07:06:40.675Z,73.125
2019-05-29T07:07:40.276Z,73.125
2019-05-29T07:08:44.856Z,73.125
2019-05-29T07:09:41.046Z,67.5
2019-05-29T07:10:40.280Z,67.5
2019-05-29T07:11:39.378Z,67.5
2019-05-29T07:12:40.264Z,67.5
2019-05-29T07:13:41.572Z,73.125
2019-05-29T07:14:40.664Z,73.125
2019-05-29T07:15:40.730Z,73.125
2019-05-29T07:16:49.450Z,78.75
2019-05-29T07:17:40.923Z,84.375
2019-05-29T07:18:41.149Z,84.375
2019-05-29T07:19:53.781Z,78.75
2019-05-29T07:20:41.208Z,78.75
2019-05-29T07:21:40.794Z,90
2019-05-29T07:22:40.854Z,129.375
2019-05-29T07:23:41.212Z,84.375
2019-05-29T07:24:41.468Z,202.5
2019-05-29T07:25:40.849Z,787.5
2019-05-29T07:26:41.040Z,1119.375
2019-05-29T07:27:40.824Z,1147.5
2019-05-29T07:28:58.607Z,1068.75
2019-05-29T07:29:43.330Z,1125
2019-05-29T07:30:43.882Z,1175.625
2019-05-29T07:31:42.787Z,1175.625
2019-05-29T07:32:42.491Z,1170
2019-05-29T07:33:43.169Z,1170
2019-05-29T07:34:56.569Z,1175.625
2019-05-29T07:35:43.520Z,1198.125
2019-05-29T07:36:41.906Z,1203.75
2019-05-29T07:37:43.707Z,1209.375
2019-05-29T07:38:45.733Z,1215
2019-05-29T07:39:43.546Z,1243.125
2019-05-29T07:40:42.607Z,1237.5
2019-05-29T07:41:43.655Z,1226.25
2019-05-29T07:42:45.724Z,1226.25
2019-05-29T07:43:43.826Z,1243.125
2019-05-29T07:44:42.231Z,1282.5
2019-05-29T07:45:42.266Z,1288.125
2019-05-29T07:46:42.362Z,1321.875
2019-05-29T07:47:42.847Z,1327.5
2019-05-29T07:48:42.715Z,1327.5
2019-05-29T07:49:46.205Z,1338.75
2019-05-29T07:50:42.641Z,1361.25
2019-05-29T07:51:43.608Z,1395
2019-05-29T07:52:43.219Z,1417.5
2019-05-29T07:53:42.660Z,1411.875
2019-05-29T07:54:43.761Z,1411.875
2019-05-29T07:55:44.665Z,1440
2019-05-29T07:56:42.814Z,438.75
2019-05-29T07:57:42.923Z,1395
2019-05-29T07:58:48.707Z,1372.5
2019-05-29T07:59:44.650Z,1366.875
2019-05-29T08:01:04.656Z,1372.5
2019-05-29T08:01:44.799Z,1355.625
2019-05-29T08:02:43.378Z,1361.25
2019-05-29T08:03:43.545Z,1383.75
2019-05-29T08:04:43.164Z,1428.75
2019-05-29T08:05:46.107Z,1434.375
2019-05-29T08:06:49.542Z,1440
2019-05-29T08:07:45.437Z,1383.75
2019-05-29T08:08:43.473Z,1428.75
2019-05-29T08:09:43.643Z,1417.5
2019-05-29T08:10:43.549Z,1389.375
2019-05-29T08:11:43.623Z,1355.625
2019-05-29T08:12:48.294Z,1406.25
2019-05-29T08:13:45.617Z,1440
2019-05-29T08:14:43.829Z,1434.375
2019-05-29T08:15:57.360Z,1434.375
2019-05-29T08:16:45.999Z,1451.25
2019-05-29T08:17:44.154Z,1462.5
2019-05-29T08:18:46.047Z,1490.625
2019-05-29T08:19:59.128Z,1524.375
2019-05-29T08:20:45.974Z,1490.625
2019-05-29T08:21:44.379Z,1316.25
2019-05-29T08:22:44.530Z,984.375
2019-05-29T08:23:44.396Z,961.875
2019-05-29T08:24:46.206Z,781.875
2019-05-29T08:25:45.337Z,1192.5
2019-05-29T08:26:46.710Z,950.625
2019-05-29T08:27:44.843Z,478.125
2019-05-29T08:28:44.786Z,624.375
2019-05-29T08:29:44.837Z,1141.875
2019-05-29T08:30:48.076Z,1473.75
2019-05-29T08:31:46.808Z,1417.5
2019-05-29T08:32:45.383Z,1575
2019-05-29T08:33:44.995Z,1378.125
2019-05-29T08:34:45.174Z,1276.875
2019-05-29T08:35:45.399Z,1085.625
2019-05-29T08:36:59.671Z,973.125
2019-05-29T08:37:46.993Z,1260
2019-05-29T08:38:45.755Z,1237.5
2019-05-29T08:39:45.435Z,703.125
2019-05-29T08:40:45.305Z,393.75
2019-05-29T08:41:54.835Z,275.625
2019-05-29T08:42:47.393Z,135
2019-05-29T08:43:46.857Z,123.75
2019-05-29T08:44:47.482Z,112.5
2019-05-29T08:45:45.817Z,118.125
2019-05-29T08:47:01.194Z,129.375
2019-05-29T08:47:47.718Z,163.125
2019-05-29T08:48:45.965Z,123.75
2019-05-29T08:49:48.154Z,118.125
2019-05-29T08:50:47.780Z,106.875
2019-05-29T08:51:46.161Z,106.875
2019-05-29T08:52:46.160Z,140.625
2019-05-29T08:53:46.439Z,511.875
2019-05-29T08:54:48.065Z,371.25
2019-05-29T08:55:46.296Z,337.5
2019-05-29T08:56:46.386Z,258.75
2019-05-29T08:57:46.414Z,180
2019-05-29T08:58:46.408Z,129.375
2019-05-29T08:59:46.453Z,129.375
2019-05-29T09:00:49.862Z,129.375
2019-05-29T09:01:49.774Z,118.125
2019-05-29T09:02:49.144Z,112.5
2019-05-29T09:03:46.827Z,202.5
2019-05-29T09:04:48.169Z,225
2019-05-29T09:06:01.370Z,225
2019-05-29T09:06:49.177Z,303.75
2019-05-29T09:07:48.251Z,275.625
2019-05-29T09:08:49.901Z,933.75
2019-05-29T09:09:47.297Z,821.25
2019-05-29T09:10:47.305Z,624.375
2019-05-29T09:11:49.869Z,331.875
2019-05-29T09:12:56.491Z,230.625
2019-05-29T09:13:48.456Z,348.75
2019-05-29T09:14:47.460Z,348.75
2019-05-29T09:15:47.448Z,208.125
2019-05-29T09:16:47.458Z,185.625
2019-05-29T09:17:47.548Z,191.25
2019-05-29T09:18:47.543Z,258.75
2019-05-29T09:19:47.543Z,208.125
2019-05-29T09:21:01.500Z,151.875
2019-05-29T09:21:48.726Z,151.875
2019-05-29T09:22:47.787Z,112.5
2019-05-29T09:23:47.832Z,112.5
2019-05-29T09:24:47.836Z,140.625
2019-05-29T09:25:48.023Z,185.625
2019-05-29T09:26:48.014Z,151.875
2019-05-29T09:27:48.049Z,129.375
2019-05-29T09:28:48.061Z,191.25
2019-05-29T09:29:48.061Z,174.375
2019-05-29T09:30:48.158Z,112.5
2019-05-29T09:31:48.060Z,180
2019-05-29T09:32:50.741Z,196.875
2019-05-29T09:33:48.061Z,624.375
2019-05-29T09:34:48.054Z,573.75
2019-05-29T09:35:48.234Z,568.125
2019-05-29T09:36:48.478Z,405
2019-05-29T09:37:49.318Z,123.75
2019-05-29T09:38:48.506Z,112.5
2019-05-29T09:39:48.413Z,112.5
2019-05-29T09:40:48.425Z,112.5
2019-05-29T09:41:48.416Z,112.5
2019-05-29T09:42:48.410Z,118.125
2019-05-29T09:43:57.992Z,118.125
2019-05-29T09:44:49.617Z,118.125
2019-05-29T09:45:48.630Z,118.125
2019-05-29T09:46:48.627Z,118.125
2019-05-29T09:47:48.633Z,123.75
2019-05-29T09:48:49.929Z,135
2019-05-29T09:49:48.781Z,343.125
2019-05-29T09:50:50.657Z,309.375
2019-05-29T09:51:48.923Z,163.125
2019-05-29T09:52:50.096Z,123.75
2019-05-29T09:53:50.294Z,180
2019-05-29T09:54:50.282Z,135
2019-05-29T09:55:49.282Z,140.625
2019-05-29T09:56:50.469Z,129.375
2019-05-29T09:57:50.446Z,135
2019-05-29T09:58:49.451Z,135
2019-05-29T09:59:50.427Z,135
2019-05-29T10:01:08.238Z,146.25
2019-05-29T10:01:50.707Z,140.625
2019-05-29T10:02:50.850Z,146.25
2019-05-29T10:03:49.983Z,140.625
2019-05-29T10:04:50.861Z,140.625
2019-05-29T10:05:51.012Z,140.625
2019-05-29T10:06:50.047Z,140.625
2019-05-29T10:07:51.046Z,140.625
2019-05-29T10:08:50.076Z,298.125
2019-05-29T10:09:51.058Z,388.125
2019-05-29T10:10:51.219Z,247.5
2019-05-29T10:11:51.224Z,185.625
2019-05-29T10:12:51.397Z,225
2019-05-29T10:13:50.580Z,225
2019-05-29T10:14:51.598Z,247.5
2019-05-29T10:15:51.670Z,174.375
2019-05-29T10:16:51.833Z,168.75
2019-05-29T10:17:51.974Z,202.5
2019-05-29T10:18:51.137Z,163.125
2019-05-29T10:19:52.147Z,382.5
2019-05-29T10:20:51.322Z,1113.75
2019-05-29T10:21:52.311Z,1693.125
2019-05-29T10:22:52.328Z,1996.875
2019-05-29T10:23:51.346Z,2098.125
2019-05-29T10:24:52.361Z,2143.125
2019-05-29T10:25:52.555Z,2216.25
2019-05-29T10:26:52.556Z,2306.25
2019-05-29T10:27:52.961Z,2300.625
2019-05-29T10:29:04.259Z,2250
2019-05-29T10:29:53.162Z,2176.875
2019-05-29T10:30:52.707Z,2103.75
2019-05-29T10:31:53.347Z,2058.75
2019-05-29T10:32:52.835Z,2120.625
2019-05-29T10:33:52.385Z,2210.625
2019-05-29T10:34:52.639Z,2216.25
2019-05-29T10:35:54.973Z,2216.25
2019-05-29T10:36:54.360Z,2182.5
2019-05-29T10:37:52.965Z,2221.875
2019-05-29T10:38:52.719Z,2278.125
2019-05-29T10:39:52.948Z,2385
2019-05-29T10:41:04.980Z,2396.25
2019-05-29T10:41:53.539Z,2334.375
2019-05-29T10:42:53.501Z,2250
2019-05-29T10:43:53.330Z,2205
2019-05-29T10:44:53.234Z,2193.75
2019-05-29T10:45:53.995Z,2171.25
2019-05-29T10:46:54.609Z,2154.375
2019-05-29T10:47:54.065Z,2109.375
2019-05-29T10:48:56.009Z,2047.5
2019-05-29T10:49:53.801Z,2013.75
2019-05-29T10:50:54.092Z,2047.5
2019-05-29T10:52:10.593Z,2120.625
2019-05-29T10:52:54.224Z,2154.375
2019-05-29T10:53:57.469Z,2165.625
2019-05-29T10:54:54.419Z,2126.25
2019-05-29T10:55:54.884Z,2092.5
2019-05-29T10:56:54.951Z,2109.375
2019-05-29T10:57:55.133Z,2182.5
2019-05-29T10:58:59.093Z,2250
2019-05-29T10:59:54.870Z,2283.75
2019-05-29T11:00:55.528Z,2289.375
2019-05-29T11:01:55.433Z,2295
2019-05-29T11:02:55.751Z,2311.875
2019-05-29T11:03:55.492Z,2323.125
2019-05-29T11:04:57.038Z,2300.625
2019-05-29T11:05:56.061Z,2278.125
2019-05-29T11:06:56.816Z,2261.25
2019-05-29T11:07:54.434Z,2266.875
2019-05-29T11:08:54.490Z,2255.625
2019-05-29T11:09:54.656Z,2165.625
2019-05-29T11:10:54.645Z,2086.875
2019-05-29T11:11:55.274Z,2036.25
2019-05-29T11:12:54.800Z,2086.875
2019-05-29T11:13:55.156Z,2188.125
2019-05-29T11:14:55.003Z,2182.5
2019-05-29T11:15:54.892Z,2120.625
2019-05-29T11:16:55.097Z,2092.5
2019-05-29T11:17:55.293Z,2075.625
2019-05-29T11:18:55.296Z,2131.875
2019-05-29T11:19:55.602Z,2176.875
2019-05-29T11:20:55.444Z,2188.125
2019-05-29T11:21:59.555Z,2137.5
2019-05-29T11:22:55.661Z,2098.125
2019-05-29T11:23:55.996Z,2103.75
2019-05-29T11:24:56.566Z,2109.375
2019-05-29T11:25:56.002Z,2120.625
2019-05-29T11:26:56.568Z,2176.875
2019-05-29T11:27:56.541Z,2216.25
2019-05-29T11:28:56.607Z,2227.5
2019-05-29T11:29:56.949Z,2227.5
2019-05-29T11:30:57.142Z,2210.625
2019-05-29T11:31:56.931Z,2216.25
2019-05-29T11:32:57.193Z,2261.25
2019-05-29T11:33:57.031Z,2306.25
2019-05-29T11:34:55.838Z,2289.375
2019-05-29T11:36:06.925Z,2160
2019-05-29T11:36:56.178Z,2137.5
2019-05-29T11:37:56.568Z,2115
2019-05-29T11:38:56.828Z,2120.625
2019-05-29T11:39:56.823Z,2171.25
2019-05-29T11:41:19.249Z,2182.5
2019-05-29T11:41:56.809Z,2126.25
2019-05-29T11:42:56.909Z,2120.625
2019-05-29T11:43:57.211Z,2148.75
2019-05-29T11:44:56.930Z,2199.375
2019-05-29T11:45:57.448Z,2323.125
2019-05-29T11:46:56.464Z,2396.25
2019-05-29T11:47:58.421Z,2373.75
2019-05-29T11:48:57.655Z,427.5
2019-05-29T11:50:02.804Z,815.625
2019-05-29T11:50:58.259Z,2362.5
2019-05-29T11:52:18.379Z,2413.125
2019-05-29T11:52:58.517Z,2334.375
2019-05-29T11:53:57.503Z,2283.75
2019-05-29T11:54:59.888Z,2266.875
2019-05-29T11:55:58.058Z,2227.5
2019-05-29T11:56:57.393Z,1445.625
2019-05-29T11:57:57.910Z,2098.125
2019-05-29T11:58:57.276Z,2013.75
2019-05-29T12:00:00.156Z,1991.25
2019-05-29T12:00:59.194Z,1991.25
2019-05-29T12:01:59.235Z,1996.875
2019-05-29T12:02:57.785Z,2002.5
2019-05-29T12:04:17.903Z,2008.125
2019-05-29T12:05:02.353Z,2019.375
2019-05-29T12:05:57.771Z,2047.5
2019-05-29T12:06:57.739Z,1991.25
2019-05-29T12:07:57.738Z,1963.125
2019-05-29T12:08:58.006Z,1996.875
2019-05-29T12:09:57.755Z,2025
2019-05-29T12:10:59.437Z,2058.75
2019-05-29T12:12:00.292Z,2019.375
2019-05-29T12:12:59.546Z,2064.375
2019-05-29T12:13:58.127Z,1226.25
2019-05-29T12:15:04.601Z,2086.875
2019-05-29T12:15:59.668Z,2148.75
2019-05-29T12:16:58.428Z,2182.5
2019-05-29T12:18:19.769Z,2193.75
2019-05-29T12:18:58.260Z,2188.125
2019-05-29T12:19:59.742Z,2165.625
2019-05-29T12:20:58.645Z,2120.625
2019-05-29T12:21:58.421Z,2109.375
2019-05-29T12:23:18.157Z,2103.75
2019-05-29T12:23:58.344Z,2103.75
2019-05-29T12:24:58.617Z,2115
2019-05-29T12:26:15.829Z,2137.5
2019-05-29T12:26:58.632Z,2098.125
2019-05-29T12:27:59.190Z,2070
2019-05-29T12:29:07.061Z,2081.25
2019-05-29T12:29:58.799Z,2137.5
2019-05-29T12:30:59.026Z,2199.375
2019-05-29T12:32:01.628Z,2250
2019-05-29T12:32:59.125Z,2227.5
2019-05-29T12:34:04.851Z,2137.5
2019-05-29T12:35:00.806Z,2086.875
2019-05-29T12:35:59.129Z,2098.125
2019-05-29T12:36:59.506Z,2143.125
2019-05-29T12:37:59.410Z,2160
2019-05-29T12:38:59.602Z,2120.625
2019-05-29T12:39:59.944Z,2041.875
2019-05-29T12:40:59.783Z,1991.25
2019-05-29T12:41:59.810Z,2002.5
2019-05-29T12:43:00.067Z,2041.875
2019-05-29T12:43:59.466Z,2092.5
2019-05-29T12:44:59.576Z,2115
2019-05-29T12:46:00.068Z,2103.75
2019-05-29T12:46:59.796Z,2115
2019-05-29T12:47:59.837Z,2115
2019-05-29T12:49:01.681Z,2126.25
2019-05-29T12:50:00.531Z,2120.625
2019-05-29T12:51:00.222Z,2081.25
2019-05-29T12:51:59.655Z,2019.375
2019-05-29T12:53:01.729Z,1974.375
2019-05-29T12:54:00.115Z,1980
2019-05-29T12:55:00.014Z,1974.375
2019-05-29T12:56:00.537Z,1980
2019-05-29T12:57:00.003Z,1963.125
2019-05-29T12:57:59.993Z,1940.625
2019-05-29T12:59:00.508Z,1940.625
2019-05-29T13:00:00.243Z,1940.625
2019-05-29T13:01:00.649Z,1940.625
2019-05-29T13:02:00.526Z,1935